sensor_id;sensor_type;location;lat;lon;timestamp;P1;durP1;ratioP1;P2;durP2;ratioP2
22646;SDS011;11490;42.726;23.268;2024-02-21T00:00:34;7.47;;;4.47;;
22646;SDS011;11490;42.726;23.268;2024-02-21T00:02:59;7.75;;;4.13;;
22646;SDS011;11490;42.726;23.268;2024-02-21T00:05:27;6.07;;;4.40;;
22646;SDS011;11490;42.726;23.268;2024-02-21T00:07:52;4.85;;;3.83;;
22646;SDS011;11490;42.726;23.268;2024-02-21T00:10:18;5.28;;;3.90;;
22646;SDS011;11490;42.726;23.268;2024-02-21T00:12:43;4.05;;;3.65;;
22646;SDS011;11490;42.726;23.268;2024-02-21T00:15:08;3.80;;;3.28;;
22646;SDS011;11490;42.726;23.268;2024-02-21T00:17:34;5.45;;;4.05;;
22646;SDS011;11490;42.726;23.268;2024-02-21T00:19:59;4.03;;;3.63;;
22646;SDS011;11490;42.726;23.268;2024-02-21T00:22:25;4.88;;;4.20;;
22646;SDS011;11490;42.726;23.268;2024-02-21T00:24:53;4.78;;;4.28;;
22646;SDS011;11490;42.726;23.268;2024-02-21T00:27:19;6.55;;;4.65;;
22646;SDS011;11490;42.726;23.268;2024-02-21T00:29:44;6.03;;;4.45;;
22646;SDS011;11490;42.726;23.268;2024-02-21T00:32:10;7.53;;;4.85;;
22646;SDS011;11490;42.726;23.268;2024-02-21T00:34:36;6.80;;;5.00;;
22646;SDS011;11490;42.726;23.268;2024-02-21T00:37:01;5.00;;;4.03;;
22646;SDS011;11490;42.726;23.268;2024-02-21T00:39:26;6.50;;;4.03;;
22646;SDS011;11490;42.726;23.268;2024-02-21T00:41:52;4.60;;;4.10;;
22646;SDS011;11490;42.726;23.268;2024-02-21T00:44:18;5.07;;;4.43;;
22646;SDS011;11490;42.726;23.268;2024-02-21T00:46:43;7.05;;;4.43;;
22646;SDS011;11490;42.726;23.268;2024-02-21T00:49:09;4.22;;;3.70;;
22646;SDS011;11490;42.726;23.268;2024-02-21T00:51:34;4.20;;;3.33;;
22646;SDS011;11490;42.726;23.268;2024-02-21T00:54:03;4.15;;;3.75;;
22646;SDS011;11490;42.726;23.268;2024-02-21T00:56:33;5.07;;;3.42;;
22646;SDS011;11490;42.726;23.268;2024-02-21T00:58:59;5.22;;;3.97;;
22646;SDS011;11490;42.726;23.268;2024-02-21T01:01:24;8.40;;;3.55;;
22646;SDS011;11490;42.726;23.268;2024-02-21T01:03:50;4.63;;;3.92;;
22646;SDS011;11490;42.726;23.268;2024-02-21T01:06:18;5.03;;;3.67;;
22646;SDS011;11490;42.726;23.268;2024-02-21T01:08:45;4.95;;;3.85;;
22646;SDS011;11490;42.726;23.268;2024-02-21T01:11:11;7.07;;;4.90;;
22646;SDS011;11490;42.726;23.268;2024-02-21T01:13:37;5.13;;;4.63;;
22646;SDS011;11490;42.726;23.268;2024-02-21T01:16:02;5.53;;;4.35;;
22646;SDS011;11490;42.726;23.268;2024-02-21T01:18:28;5.07;;;4.50;;
22646;SDS011;11490;42.726;23.268;2024-02-21T01:20:53;4.53;;;3.80;;
22646;SDS011;11490;42.726;23.268;2024-02-21T01:23:19;5.10;;;4.00;;
22646;SDS011;11490;42.726;23.268;2024-02-21T01:25:44;6.28;;;3.80;;
22646;SDS011;11490;42.726;23.268;2024-02-21T01:28:09;4.50;;;4.05;;
22646;SDS011;11490;42.726;23.268;2024-02-21T01:30:35;4.03;;;3.63;;
22646;SDS011;11490;42.726;23.268;2024-02-21T01:33:00;5.68;;;4.20;;
22646;SDS011;11490;42.726;23.268;2024-02-21T01:35:26;6.75;;;4.65;;
22646;SDS011;11490;42.726;23.268;2024-02-21T01:37:51;4.68;;;3.78;;
22646;SDS011;11490;42.726;23.268;2024-02-21T01:40:16;6.32;;;4.07;;
22646;SDS011;11490;42.726;23.268;2024-02-21T01:42:42;6.80;;;4.25;;
22646;SDS011;11490;42.726;23.268;2024-02-21T01:45:07;4.45;;;3.78;;
22646;SDS011;11490;42.726;23.268;2024-02-21T01:47:33;5.07;;;4.22;;
22646;SDS011;11490;42.726;23.268;2024-02-21T01:49:59;5.45;;;4.80;;
22646;SDS011;11490;42.726;23.268;2024-02-21T01:52:27;5.63;;;4.10;;
22646;SDS011;11490;42.726;23.268;2024-02-21T01:54:53;7.55;;;4.63;;
22646;SDS011;11490;42.726;23.268;2024-02-21T01:57:19;5.15;;;4.10;;
22646;SDS011;11490;42.726;23.268;2024-02-21T01:59:44;4.70;;;4.05;;
22646;SDS011;11490;42.726;23.268;2024-02-21T02:02:11;5.15;;;4.18;;
22646;SDS011;11490;42.726;23.268;2024-02-21T02:04:37;6.30;;;4.57;;
22646;SDS011;11490;42.726;23.268;2024-02-21T02:07:04;5.15;;;3.95;;
22646;SDS011;11490;42.726;23.268;2024-02-21T02:09:32;5.88;;;3.90;;
22646;SDS011;11490;42.726;23.268;2024-02-21T02:11:57;9.85;;;5.38;;
22646;SDS011;11490;42.726;23.268;2024-02-21T02:14:24;6.47;;;4.57;;
22646;SDS011;11490;42.726;23.268;2024-02-21T02:16:50;10.63;;;3.50;;
22646;SDS011;11490;42.726;23.268;2024-02-21T02:19:15;7.03;;;4.75;;
22646;SDS011;11490;42.726;23.268;2024-02-21T02:21:42;6.45;;;4.65;;
22646;SDS011;11490;42.726;23.268;2024-02-21T02:24:22;5.75;;;4.25;;
22646;SDS011;11490;42.726;23.268;2024-02-21T02:26:49;6.63;;;4.80;;
22646;SDS011;11490;42.726;23.268;2024-02-21T02:29:15;6.53;;;4.28;;
22646;SDS011;11490;42.726;23.268;2024-02-21T02:31:41;9.18;;;5.38;;
22646;SDS011;11490;42.726;23.268;2024-02-21T02:34:07;6.10;;;4.68;;
22646;SDS011;11490;42.726;23.268;2024-02-21T02:36:32;7.15;;;5.05;;
22646;SDS011;11490;42.726;23.268;2024-02-21T02:38:58;6.07;;;4.18;;
22646;SDS011;11490;42.726;23.268;2024-02-21T02:41:24;7.75;;;6.15;;
22646;SDS011;11490;42.726;23.268;2024-02-21T02:43:49;6.88;;;4.75;;
22646;SDS011;11490;42.726;23.268;2024-02-21T02:46:15;7.05;;;4.75;;
22646;SDS011;11490;42.726;23.268;2024-02-21T02:48:40;7.32;;;5.40;;
22646;SDS011;11490;42.726;23.268;2024-02-21T02:51:06;6.18;;;4.45;;
22646;SDS011;11490;42.726;23.268;2024-02-21T02:53:31;7.65;;;5.15;;
22646;SDS011;11490;42.726;23.268;2024-02-21T02:55:56;6.75;;;4.72;;
22646;SDS011;11490;42.726;23.268;2024-02-21T02:58:22;7.82;;;5.03;;
22646;SDS011;11490;42.726;23.268;2024-02-21T03:00:48;5.30;;;4.22;;
22646;SDS011;11490;42.726;23.268;2024-02-21T03:03:13;6.45;;;4.85;;
22646;SDS011;11490;42.726;23.268;2024-02-21T03:05:39;7.45;;;4.55;;
22646;SDS011;11490;42.726;23.268;2024-02-21T03:08:04;8.25;;;4.80;;
22646;SDS011;11490;42.726;23.268;2024-02-21T03:10:32;6.30;;;4.53;;
22646;SDS011;11490;42.726;23.268;2024-02-21T03:12:58;9.75;;;6.82;;
22646;SDS011;11490;42.726;23.268;2024-02-21T03:15:23;8.90;;;5.25;;
22646;SDS011;11490;42.726;23.268;2024-02-21T03:17:49;8.70;;;5.80;;
22646;SDS011;11490;42.726;23.268;2024-02-21T03:20:14;6.65;;;5.22;;
22646;SDS011;11490;42.726;23.268;2024-02-21T03:22:40;8.90;;;6.00;;
22646;SDS011;11490;42.726;23.268;2024-02-21T03:25:06;9.35;;;6.20;;
22646;SDS011;11490;42.726;23.268;2024-02-21T03:27:32;12.25;;;6.43;;
22646;SDS011;11490;42.726;23.268;2024-02-21T03:29:57;13.00;;;5.70;;
22646;SDS011;11490;42.726;23.268;2024-02-21T03:32:22;11.05;;;6.57;;
22646;SDS011;11490;42.726;23.268;2024-02-21T03:34:48;7.18;;;5.10;;
22646;SDS011;11490;42.726;23.268;2024-02-21T03:37:13;8.73;;;6.00;;
22646;SDS011;11490;42.726;23.268;2024-02-21T03:39:39;9.68;;;6.53;;
22646;SDS011;11490;42.726;23.268;2024-02-21T03:42:05;11.02;;;6.80;;
22646;SDS011;11490;42.726;23.268;2024-02-21T03:44:31;11.85;;;5.78;;
22646;SDS011;11490;42.726;23.268;2024-02-21T03:46:57;8.60;;;5.78;;
22646;SDS011;11490;42.726;23.268;2024-02-21T03:49:23;6.53;;;5.15;;
22646;SDS011;11490;42.726;23.268;2024-02-21T03:51:49;9.02;;;5.22;;
22646;SDS011;11490;42.726;23.268;2024-02-21T03:54:14;9.50;;;6.38;;
22646;SDS011;11490;42.726;23.268;2024-02-21T03:56:39;8.13;;;5.25;;
22646;SDS011;11490;42.726;23.268;2024-02-21T03:59:05;7.03;;;5.47;;
22646;SDS011;11490;42.726;23.268;2024-02-21T04:01:31;8.27;;;5.22;;
22646;SDS011;11490;42.726;23.268;2024-02-21T04:03:57;10.38;;;6.47;;
22646;SDS011;11490;42.726;23.268;2024-02-21T04:06:22;7.53;;;5.68;;
22646;SDS011;11490;42.726;23.268;2024-02-21T04:08:47;8.13;;;5.60;;
22646;SDS011;11490;42.726;23.268;2024-02-21T04:11:13;10.02;;;6.68;;
22646;SDS011;11490;42.726;23.268;2024-02-21T04:13:38;16.30;;;8.70;;
22646;SDS011;11490;42.726;23.268;2024-02-21T04:16:04;12.93;;;7.88;;
22646;SDS011;11490;42.726;23.268;2024-02-21T04:18:30;9.90;;;6.32;;
22646;SDS011;11490;42.726;23.268;2024-02-21T04:20:56;13.10;;;7.45;;
22646;SDS011;11490;42.726;23.268;2024-02-21T04:23:21;18.27;;;8.60;;
22646;SDS011;11490;42.726;23.268;2024-02-21T04:25:47;14.43;;;7.60;;
22646;SDS011;11490;42.726;23.268;2024-02-21T04:28:12;14.00;;;9.05;;
22646;SDS011;11490;42.726;23.268;2024-02-21T04:30:38;21.33;;;8.90;;
22646;SDS011;11490;42.726;23.268;2024-02-21T04:33:03;12.93;;;7.95;;
22646;SDS011;11490;42.726;23.268;2024-02-21T04:35:28;9.73;;;6.68;;
22646;SDS011;11490;42.726;23.268;2024-02-21T04:37:54;13.32;;;6.40;;
22646;SDS011;11490;42.726;23.268;2024-02-21T04:40:20;14.40;;;7.32;;
22646;SDS011;11490;42.726;23.268;2024-02-21T04:42:45;11.43;;;6.95;;
22646;SDS011;11490;42.726;23.268;2024-02-21T04:45:11;13.32;;;8.93;;
22646;SDS011;11490;42.726;23.268;2024-02-21T04:47:36;12.43;;;7.80;;
22646;SDS011;11490;42.726;23.268;2024-02-21T04:50:02;11.55;;;7.85;;
22646;SDS011;11490;42.726;23.268;2024-02-21T04:52:27;12.02;;;6.95;;
22646;SDS011;11490;42.726;23.268;2024-02-21T04:54:53;12.88;;;6.43;;
22646;SDS011;11490;42.726;23.268;2024-02-21T04:57:18;10.10;;;7.43;;
22646;SDS011;11490;42.726;23.268;2024-02-21T04:59:44;13.60;;;7.40;;
22646;SDS011;11490;42.726;23.268;2024-02-21T05:02:10;12.75;;;7.15;;
22646;SDS011;11490;42.726;23.268;2024-02-21T05:04:36;12.38;;;7.85;;
22646;SDS011;11490;42.726;23.268;2024-02-21T05:07:03;11.45;;;8.38;;
22646;SDS011;11490;42.726;23.268;2024-02-21T05:09:29;14.93;;;8.18;;
22646;SDS011;11490;42.726;23.268;2024-02-21T05:11:54;11.80;;;7.78;;
22646;SDS011;11490;42.726;23.268;2024-02-21T05:14:20;24.88;;;9.40;;
22646;SDS011;11490;42.726;23.268;2024-02-21T05:16:45;14.57;;;9.65;;
22646;SDS011;11490;42.726;23.268;2024-02-21T05:19:10;12.18;;;8.43;;
22646;SDS011;11490;42.726;23.268;2024-02-21T05:21:36;17.15;;;8.20;;
22646;SDS011;11490;42.726;23.268;2024-02-21T05:24:01;13.45;;;8.65;;
22646;SDS011;11490;42.726;23.268;2024-02-21T05:26:27;15.00;;;8.80;;
22646;SDS011;11490;42.726;23.268;2024-02-21T05:28:53;9.68;;;7.05;;
22646;SDS011;11490;42.726;23.268;2024-02-21T05:31:18;12.10;;;8.60;;
22646;SDS011;11490;42.726;23.268;2024-02-21T05:33:44;17.80;;;8.32;;
22646;SDS011;11490;42.726;23.268;2024-02-21T05:36:10;10.73;;;7.13;;
22646;SDS011;11490;42.726;23.268;2024-02-21T05:38:36;13.50;;;8.70;;
22646;SDS011;11490;42.726;23.268;2024-02-21T05:41:02;14.25;;;8.77;;
22646;SDS011;11490;42.726;23.268;2024-02-21T05:43:27;12.10;;;7.15;;
22646;SDS011;11490;42.726;23.268;2024-02-21T05:45:52;11.85;;;7.25;;
22646;SDS011;11490;42.726;23.268;2024-02-21T05:48:18;22.35;;;12.85;;
22646;SDS011;11490;42.726;23.268;2024-02-21T05:50:43;28.65;;;13.38;;
22646;SDS011;11490;42.726;23.268;2024-02-21T05:53:09;26.17;;;11.70;;
22646;SDS011;11490;42.726;23.268;2024-02-21T05:55:35;16.95;;;10.25;;
22646;SDS011;11490;42.726;23.268;2024-02-21T05:58:00;23.27;;;10.90;;
22646;SDS011;11490;42.726;23.268;2024-02-21T06:00:27;14.65;;;7.72;;
22646;SDS011;11490;42.726;23.268;2024-02-21T06:02:52;16.13;;;10.02;;
22646;SDS011;11490;42.726;23.268;2024-02-21T06:05:18;16.25;;;7.85;;
22646;SDS011;11490;42.726;23.268;2024-02-21T06:07:43;15.38;;;8.75;;
22646;SDS011;11490;42.726;23.268;2024-02-21T06:10:09;9.15;;;7.32;;
22646;SDS011;11490;42.726;23.268;2024-02-21T06:12:34;11.82;;;8.18;;
22646;SDS011;11490;42.726;23.268;2024-02-21T06:14:59;10.50;;;8.00;;
22646;SDS011;11490;42.726;23.268;2024-02-21T06:17:25;12.77;;;8.65;;
22646;SDS011;11490;42.726;23.268;2024-02-21T06:19:50;11.23;;;7.22;;
22646;SDS011;11490;42.726;23.268;2024-02-21T06:22:16;13.23;;;8.40;;
22646;SDS011;11490;42.726;23.268;2024-02-21T06:24:41;15.77;;;9.00;;
22646;SDS011;11490;42.726;23.268;2024-02-21T06:27:06;11.68;;;8.77;;
22646;SDS011;11490;42.726;23.268;2024-02-21T06:29:32;18.52;;;10.73;;
22646;SDS011;11490;42.726;23.268;2024-02-21T06:31:58;9.85;;;7.40;;
22646;SDS011;11490;42.726;23.268;2024-02-21T06:34:24;11.57;;;7.05;;
22646;SDS011;11490;42.726;23.268;2024-02-21T06:36:49;9.88;;;7.25;;
22646;SDS011;11490;42.726;23.268;2024-02-21T06:39:15;9.07;;;6.35;;
22646;SDS011;11490;42.726;23.268;2024-02-21T06:41:41;11.10;;;6.45;;
22646;SDS011;11490;42.726;23.268;2024-02-21T06:44:06;11.50;;;6.88;;
22646;SDS011;11490;42.726;23.268;2024-02-21T06:46:35;13.50;;;8.25;;
22646;SDS011;11490;42.726;23.268;2024-02-21T06:49:00;9.10;;;6.80;;
22646;SDS011;11490;42.726;23.268;2024-02-21T06:51:27;13.32;;;7.97;;
22646;SDS011;11490;42.726;23.268;2024-02-21T06:53:53;9.60;;;6.65;;
22646;SDS011;11490;42.726;23.268;2024-02-21T06:56:19;10.75;;;7.13;;
22646;SDS011;11490;42.726;23.268;2024-02-21T06:58:45;14.25;;;7.20;;
22646;SDS011;11490;42.726;23.268;2024-02-21T07:01:10;17.33;;;9.38;;
22646;SDS011;11490;42.726;23.268;2024-02-21T07:03:36;11.32;;;7.38;;
22646;SDS011;11490;42.726;23.268;2024-02-21T07:06:02;19.77;;;7.57;;
22646;SDS011;11490;42.726;23.268;2024-02-21T07:08:28;12.10;;;7.45;;
22646;SDS011;11490;42.726;23.268;2024-02-21T07:10:53;11.82;;;7.50;;
22646;SDS011;11490;42.726;23.268;2024-02-21T07:13:19;12.30;;;7.22;;
22646;SDS011;11490;42.726;23.268;2024-02-21T07:15:44;11.98;;;7.47;;
22646;SDS011;11490;42.726;23.268;2024-02-21T07:18:09;14.02;;;7.18;;
22646;SDS011;11490;42.726;23.268;2024-02-21T07:20:35;10.38;;;6.72;;
22646;SDS011;11490;42.726;23.268;2024-02-21T07:23:02;11.63;;;7.93;;
22646;SDS011;11490;42.726;23.268;2024-02-21T07:25:28;11.85;;;7.45;;
22646;SDS011;11490;42.726;23.268;2024-02-21T07:27:54;10.68;;;7.20;;
22646;SDS011;11490;42.726;23.268;2024-02-21T07:30:19;11.57;;;6.80;;
22646;SDS011;11490;42.726;23.268;2024-02-21T07:32:44;14.38;;;8.95;;
22646;SDS011;11490;42.726;23.268;2024-02-21T07:35:10;14.30;;;7.25;;
22646;SDS011;11490;42.726;23.268;2024-02-21T07:37:37;11.73;;;7.90;;
22646;SDS011;11490;42.726;23.268;2024-02-21T07:40:05;10.45;;;7.10;;
22646;SDS011;11490;42.726;23.268;2024-02-21T07:42:31;13.45;;;8.18;;
22646;SDS011;11490;42.726;23.268;2024-02-21T07:44:57;12.30;;;7.78;;
22646;SDS011;11490;42.726;23.268;2024-02-21T07:47:22;10.73;;;6.50;;
22646;SDS011;11490;42.726;23.268;2024-02-21T07:49:48;13.13;;;8.88;;
22646;SDS011;11490;42.726;23.268;2024-02-21T07:52:14;14.25;;;9.45;;
22646;SDS011;11490;42.726;23.268;2024-02-21T07:54:40;16.77;;;8.68;;
22646;SDS011;11490;42.726;23.268;2024-02-21T07:57:07;17.02;;;8.57;;
22646;SDS011;11490;42.726;23.268;2024-02-21T07:59:32;14.05;;;8.65;;
22646;SDS011;11490;42.726;23.268;2024-02-21T08:01:58;15.00;;;8.13;;
22646;SDS011;11490;42.726;23.268;2024-02-21T08:04:24;11.73;;;7.93;;
22646;SDS011;11490;42.726;23.268;2024-02-21T08:06:53;11.52;;;7.78;;
22646;SDS011;11490;42.726;23.268;2024-02-21T08:09:24;12.27;;;7.57;;
22646;SDS011;11490;42.726;23.268;2024-02-21T08:11:49;11.45;;;8.18;;
22646;SDS011;11490;42.726;23.268;2024-02-21T08:14:15;13.57;;;7.85;;
22646;SDS011;11490;42.726;23.268;2024-02-21T08:16:41;19.30;;;9.25;;
22646;SDS011;11490;42.726;23.268;2024-02-21T08:19:07;15.13;;;8.90;;
22646;SDS011;11490;42.726;23.268;2024-02-21T08:21:33;14.10;;;7.65;;
22646;SDS011;11490;42.726;23.268;2024-02-21T08:23:58;17.13;;;9.52;;
22646;SDS011;11490;42.726;23.268;2024-02-21T08:26:23;12.93;;;6.95;;
22646;SDS011;11490;42.726;23.268;2024-02-21T08:28:49;10.63;;;6.80;;
22646;SDS011;11490;42.726;23.268;2024-02-21T08:31:19;14.60;;;8.02;;
22646;SDS011;11490;42.726;23.268;2024-02-21T08:33:45;11.55;;;7.60;;
22646;SDS011;11490;42.726;23.268;2024-02-21T08:36:17;13.32;;;7.55;;
22646;SDS011;11490;42.726;23.268;2024-02-21T08:38:43;14.30;;;7.63;;
22646;SDS011;11490;42.726;23.268;2024-02-21T08:41:09;10.90;;;6.75;;
22646;SDS011;11490;42.726;23.268;2024-02-21T08:43:34;15.82;;;9.23;;
22646;SDS011;11490;42.726;23.268;2024-02-21T08:46:00;14.45;;;9.30;;
22646;SDS011;11490;42.726;23.268;2024-02-21T08:48:26;13.77;;;7.65;;
22646;SDS011;11490;42.726;23.268;2024-02-21T08:50:51;17.58;;;7.78;;
22646;SDS011;11490;42.726;23.268;2024-02-21T08:53:17;21.98;;;10.35;;
22646;SDS011;11490;42.726;23.268;2024-02-21T08:55:42;11.90;;;7.35;;
22646;SDS011;11490;42.726;23.268;2024-02-21T08:58:09;13.07;;;8.15;;
22646;SDS011;11490;42.726;23.268;2024-02-21T09:00:35;13.05;;;8.23;;
22646;SDS011;11490;42.726;23.268;2024-02-21T09:03:00;15.07;;;8.77;;
22646;SDS011;11490;42.726;23.268;2024-02-21T09:05:25;11.55;;;7.07;;
22646;SDS011;11490;42.726;23.268;2024-02-21T09:07:51;10.32;;;6.75;;
22646;SDS011;11490;42.726;23.268;2024-02-21T09:10:17;10.88;;;6.82;;
22646;SDS011;11490;42.726;23.268;2024-02-21T09:12:42;10.88;;;8.55;;
22646;SDS011;11490;42.726;23.268;2024-02-21T09:15:08;13.73;;;7.35;;
22646;SDS011;11490;42.726;23.268;2024-02-21T09:17:34;11.82;;;7.07;;
22646;SDS011;11490;42.726;23.268;2024-02-21T09:19:59;10.43;;;7.30;;
22646;SDS011;11490;42.726;23.268;2024-02-21T09:22:28;9.70;;;6.25;;
22646;SDS011;11490;42.726;23.268;2024-02-21T09:24:53;13.73;;;7.03;;
22646;SDS011;11490;42.726;23.268;2024-02-21T09:27:19;9.77;;;6.53;;
22646;SDS011;11490;42.726;23.268;2024-02-21T09:29:44;11.98;;;7.88;;
22646;SDS011;11490;42.726;23.268;2024-02-21T09:32:09;11.93;;;8.18;;
22646;SDS011;11490;42.726;23.268;2024-02-21T09:34:35;10.80;;;7.72;;
22646;SDS011;11490;42.726;23.268;2024-02-21T09:37:00;10.27;;;7.70;;
22646;SDS011;11490;42.726;23.268;2024-02-21T09:39:26;9.18;;;7.38;;
22646;SDS011;11490;42.726;23.268;2024-02-21T09:41:53;9.80;;;7.20;;
22646;SDS011;11490;42.726;23.268;2024-02-21T09:44:23;10.68;;;6.85;;
22646;SDS011;11490;42.726;23.268;2024-02-21T09:47:10;10.10;;;6.35;;
22646;SDS011;11490;42.726;23.268;2024-02-21T09:49:42;12.55;;;5.35;;
22646;SDS011;11490;42.726;23.268;2024-02-21T09:52:09;8.95;;;6.05;;
22646;SDS011;11490;42.726;23.268;2024-02-21T09:54:38;8.55;;;5.75;;
22646;SDS011;11490;42.726;23.268;2024-02-21T09:57:05;9.50;;;6.00;;
22646;SDS011;11490;42.726;23.268;2024-02-21T09:59:31;15.32;;;7.50;;
22646;SDS011;11490;42.726;23.268;2024-02-21T10:01:58;11.00;;;7.07;;
22646;SDS011;11490;42.726;23.268;2024-02-21T10:04:26;9.27;;;5.72;;
22646;SDS011;11490;42.726;23.268;2024-02-21T10:06:53;10.57;;;6.05;;
22646;SDS011;11490;42.726;23.268;2024-02-21T10:09:25;10.43;;;6.88;;
22646;SDS011;11490;42.726;23.268;2024-02-21T10:12:10;12.30;;;5.72;;
22646;SDS011;11490;42.726;23.268;2024-02-21T10:14:37;7.93;;;5.25;;
22646;SDS011;11490;42.726;23.268;2024-02-21T10:17:02;8.82;;;5.57;;
22646;SDS011;11490;42.726;23.268;2024-02-21T10:19:30;8.65;;;5.25;;
22646;SDS011;11490;42.726;23.268;2024-02-21T10:22:07;7.45;;;5.18;;
22646;SDS011;11490;42.726;23.268;2024-02-21T10:24:33;6.22;;;4.25;;
22646;SDS011;11490;42.726;23.268;2024-02-21T10:27:03;9.45;;;5.35;;
22646;SDS011;11490;42.726;23.268;2024-02-21T10:29:35;6.07;;;4.18;;
22646;SDS011;11490;42.726;23.268;2024-02-21T10:32:07;7.03;;;3.50;;
22646;SDS011;11490;42.726;23.268;2024-02-21T10:34:34;6.35;;;4.53;;
22646;SDS011;11490;42.726;23.268;2024-02-21T10:37:04;9.15;;;5.05;;
22646;SDS011;11490;42.726;23.268;2024-02-21T10:39:38;7.15;;;4.63;;
22646;SDS011;11490;42.726;23.268;2024-02-21T10:42:04;5.05;;;4.15;;
22646;SDS011;11490;42.726;23.268;2024-02-21T10:44:32;5.82;;;4.15;;
22646;SDS011;11490;42.726;23.268;2024-02-21T10:47:01;5.55;;;3.63;;
22646;SDS011;11490;42.726;23.268;2024-02-21T10:49:32;5.82;;;4.32;;
22646;SDS011;11490;42.726;23.268;2024-02-21T10:52:05;5.20;;;3.70;;
22646;SDS011;11490;42.726;23.268;2024-02-21T10:54:44;4.82;;;3.13;;
22646;SDS011;11490;42.726;23.268;2024-02-21T10:57:13;3.85;;;3.05;;
22646;SDS011;11490;42.726;23.268;2024-02-21T10:59:39;7.10;;;3.65;;
22646;SDS011;11490;42.726;23.268;2024-02-21T11:02:05;5.78;;;3.50;;
22646;SDS011;11490;42.726;23.268;2024-02-21T11:04:31;5.32;;;3.30;;
22646;SDS011;11490;42.726;23.268;2024-02-21T11:07:05;4.22;;;2.92;;
22646;SDS011;11490;42.726;23.268;2024-02-21T11:09:31;5.15;;;3.45;;
22646;SDS011;11490;42.726;23.268;2024-02-21T11:11:57;4.32;;;2.75;;
22646;SDS011;11490;42.726;23.268;2024-02-21T11:14:27;5.75;;;3.63;;
22646;SDS011;11490;42.726;23.268;2024-02-21T11:16:53;5.85;;;3.15;;
22646;SDS011;11490;42.726;23.268;2024-02-21T11:19:27;5.40;;;3.45;;
22646;SDS011;11490;42.726;23.268;2024-02-21T11:21:54;5.45;;;3.53;;
22646;SDS011;11490;42.726;23.268;2024-02-21T11:24:25;6.55;;;3.67;;
22646;SDS011;11490;42.726;23.268;2024-02-21T11:26:55;8.70;;;3.30;;
22646;SDS011;11490;42.726;23.268;2024-02-21T11:29:24;7.43;;;3.47;;
22646;SDS011;11490;42.726;23.268;2024-02-21T11:31:50;7.25;;;4.45;;
22646;SDS011;11490;42.726;23.268;2024-02-21T11:34:19;7.68;;;5.30;;
22646;SDS011;11490;42.726;23.268;2024-02-21T11:36:49;5.95;;;3.92;;
22646;SDS011;11490;42.726;23.268;2024-02-21T11:39:23;5.10;;;3.47;;
22646;SDS011;11490;42.726;23.268;2024-02-21T11:42:00;5.20;;;3.45;;
22646;SDS011;11490;42.726;23.268;2024-02-21T11:44:26;6.10;;;4.68;;
22646;SDS011;11490;42.726;23.268;2024-02-21T11:46:52;8.40;;;5.05;;
22646;SDS011;11490;42.726;23.268;2024-02-21T11:49:17;5.68;;;4.05;;
22646;SDS011;11490;42.726;23.268;2024-02-21T11:51:42;6.50;;;4.05;;
22646;SDS011;11490;42.726;23.268;2024-02-21T11:54:08;5.20;;;3.42;;
22646;SDS011;11490;42.726;23.268;2024-02-21T11:56:34;4.50;;;3.50;;
22646;SDS011;11490;42.726;23.268;2024-02-21T11:59:00;6.40;;;4.43;;
22646;SDS011;11490;42.726;23.268;2024-02-21T12:01:25;8.73;;;4.15;;
22646;SDS011;11490;42.726;23.268;2024-02-21T12:03:51;5.63;;;3.50;;
22646;SDS011;11490;42.726;23.268;2024-02-21T12:06:16;7.28;;;4.25;;
22646;SDS011;11490;42.726;23.268;2024-02-21T12:08:46;7.03;;;3.50;;
22646;SDS011;11490;42.726;23.268;2024-02-21T12:11:21;5.25;;;3.90;;
22646;SDS011;11490;42.726;23.268;2024-02-21T12:13:57;5.35;;;4.10;;
22646;SDS011;11490;42.726;23.268;2024-02-21T12:16:28;7.28;;;5.00;;
22646;SDS011;11490;42.726;23.268;2024-02-21T12:19:07;8.52;;;4.97;;
22646;SDS011;11490;42.726;23.268;2024-02-21T12:21:34;6.95;;;4.25;;
22646;SDS011;11490;42.726;23.268;2024-02-21T12:24:15;5.72;;;4.18;;
22646;SDS011;11490;42.726;23.268;2024-02-21T12:26:42;5.80;;;3.83;;
22646;SDS011;11490;42.726;23.268;2024-02-21T12:29:07;9.88;;;4.47;;
22646;SDS011;11490;42.726;23.268;2024-02-21T12:31:36;6.97;;;4.90;;
22646;SDS011;11490;42.726;23.268;2024-02-21T12:34:02;5.90;;;4.25;;
22646;SDS011;11490;42.726;23.268;2024-02-21T12:36:29;9.20;;;5.55;;
22646;SDS011;11490;42.726;23.268;2024-02-21T12:38:54;9.35;;;5.38;;
22646;SDS011;11490;42.726;23.268;2024-02-21T12:41:20;9.32;;;5.43;;
22646;SDS011;11490;42.726;23.268;2024-02-21T12:43:46;9.65;;;5.68;;
22646;SDS011;11490;42.726;23.268;2024-02-21T12:46:12;8.75;;;6.45;;
22646;SDS011;11490;42.726;23.268;2024-02-21T12:48:37;12.57;;;5.45;;
22646;SDS011;11490;42.726;23.268;2024-02-21T12:51:03;8.38;;;5.45;;
22646;SDS011;11490;42.726;23.268;2024-02-21T12:53:29;8.35;;;4.65;;
22646;SDS011;11490;42.726;23.268;2024-02-21T12:55:55;8.52;;;5.03;;
22646;SDS011;11490;42.726;23.268;2024-02-21T12:58:21;7.40;;;4.80;;
22646;SDS011;11490;42.726;23.268;2024-02-21T13:00:47;8.15;;;4.57;;
22646;SDS011;11490;42.726;23.268;2024-02-21T13:03:14;8.18;;;4.93;;
22646;SDS011;11490;42.726;23.268;2024-02-21T13:05:39;6.65;;;5.22;;
22646;SDS011;11490;42.726;23.268;2024-02-21T13:08:08;7.63;;;4.97;;
22646;SDS011;11490;42.726;23.268;2024-02-21T13:10:34;16.85;;;6.38;;
22646;SDS011;11490;42.726;23.268;2024-02-21T13:13:03;7.93;;;5.65;;
22646;SDS011;11490;42.726;23.268;2024-02-21T13:15:28;9.10;;;5.65;;
22646;SDS011;11490;42.726;23.268;2024-02-21T13:17:57;6.40;;;3.75;;
22646;SDS011;11490;42.726;23.268;2024-02-21T13:20:23;8.27;;;5.00;;
22646;SDS011;11490;42.726;23.268;2024-02-21T13:22:50;6.57;;;4.57;;
22646;SDS011;11490;42.726;23.268;2024-02-21T13:25:15;5.50;;;3.97;;
22646;SDS011;11490;42.726;23.268;2024-02-21T13:27:43;5.47;;;3.80;;
22646;SDS011;11490;42.726;23.268;2024-02-21T13:30:09;6.57;;;4.57;;
22646;SDS011;11490;42.726;23.268;2024-02-21T13:32:35;7.90;;;4.57;;
22646;SDS011;11490;42.726;23.268;2024-02-21T13:35:00;7.10;;;5.60;;
22646;SDS011;11490;42.726;23.268;2024-02-21T13:37:26;8.50;;;5.32;;
22646;SDS011;11490;42.726;23.268;2024-02-21T13:39:52;8.88;;;5.40;;
22646;SDS011;11490;42.726;23.268;2024-02-21T13:42:18;8.40;;;4.50;;
22646;SDS011;11490;42.726;23.268;2024-02-21T13:44:44;6.47;;;5.18;;
22646;SDS011;11490;42.726;23.268;2024-02-21T13:47:10;6.97;;;4.93;;
22646;SDS011;11490;42.726;23.268;2024-02-21T13:49:38;7.13;;;4.50;;
22646;SDS011;11490;42.726;23.268;2024-02-21T13:52:04;9.30;;;4.80;;
22646;SDS011;11490;42.726;23.268;2024-02-21T13:54:30;7.47;;;4.88;;
22646;SDS011;11490;42.726;23.268;2024-02-21T13:56:55;7.68;;;4.63;;
22646;SDS011;11490;42.726;23.268;2024-02-21T13:59:21;8.07;;;4.82;;
22646;SDS011;11490;42.726;23.268;2024-02-21T14:01:46;16.95;;;6.25;;
22646;SDS011;11490;42.726;23.268;2024-02-21T14:04:12;6.45;;;4.28;;
22646;SDS011;11490;42.726;23.268;2024-02-21T14:06:37;7.10;;;4.60;;
22646;SDS011;11490;42.726;23.268;2024-02-21T14:09:08;7.25;;;5.15;;
22646;SDS011;11490;42.726;23.268;2024-02-21T14:11:36;12.77;;;6.38;;
22646;SDS011;11490;42.726;23.268;2024-02-21T14:14:03;8.45;;;5.25;;
22646;SDS011;11490;42.726;23.268;2024-02-21T14:16:29;9.10;;;6.07;;
22646;SDS011;11490;42.726;23.268;2024-02-21T14:18:55;7.57;;;4.80;;
22646;SDS011;11490;42.726;23.268;2024-02-21T14:21:20;7.60;;;5.10;;
22646;SDS011;11490;42.726;23.268;2024-02-21T14:23:46;9.52;;;5.90;;